createdAt,value
2022-12-19T00:02:32.895Z,94.30
2022-12-19T00:06:16.756Z,94.30
2022-12-19T00:09:58.914Z,94.30
2022-12-19T00:13:41.960Z,94.30
2022-12-19T00:17:24.318Z,94.30
2022-12-19T00:21:08.222Z,94.40
2022-12-19T00:24:50.277Z,94.30
2022-12-19T00:28:33.494Z,94.40
2022-12-19T00:32:16.282Z,94.50
2022-12-19T00:36:07.525Z,94.40
2022-12-19T00:39:51.218Z,94.40
2022-12-19T00:43:33.261Z,94.40
2022-12-19T00:47:16.541Z,94.40
2022-12-19T00:51:06.776Z,94.40
2022-12-19T00:54:50.191Z,94.40
2022-12-19T00:58:35.703Z,94.50
2022-12-19T01:02:18.933Z,94.40
2022-12-19T01:06:05.428Z,94.40
2022-12-19T01:09:48.117Z,94.40
2022-12-19T01:13:36.093Z,94.40
2022-12-19T01:17:25.067Z,94.40
2022-12-19T01:21:13.641Z,94.40
2022-12-19T01:24:59.514Z,94.40
2022-12-19T01:28:42.295Z,94.40
2022-12-19T01:32:25.656Z,94.40
2022-12-19T01:36:08.132Z,94.40
2022-12-19T01:39:51.198Z,94.50
2022-12-19T01:43:57.044Z,94.40
2022-12-19T01:48:21.435Z,94.70
2022-12-19T01:52:07.614Z,94.60
2022-12-19T01:55:51.516Z,94.50
2022-12-19T01:59:41.896Z,94.40
2022-12-19T02:03:32.083Z,94.50
2022-12-19T02:07:16.701Z,94.50
2022-12-19T02:10:59.714Z,94.60
2022-12-19T02:14:42.588Z,94.60
2022-12-19T02:18:52.212Z,94.60
2022-12-19T02:23:13.631Z,94.70
2022-12-19T02:27:01.748Z,94.80
2022-12-19T02:30:52.912Z,94.70
2022-12-19T02:34:44.590Z,94.80
2022-12-19T02:38:58.701Z,94.70
2022-12-19T02:42:48.781Z,94.80
2022-12-19T02:46:33.943Z,94.80
2022-12-19T02:50:16.218Z,94.70
2022-12-19T02:53:58.901Z,94.70
2022-12-19T02:57:50.598Z,94.70
2022-12-19T03:01:45.789Z,94.80
2022-12-19T03:05:51.819Z,94.70
2022-12-19T03:09:52.510Z,94.90
2022-12-19T03:14:00.840Z,94.70
2022-12-19T03:17:43.646Z,94.70
2022-12-19T03:21:40.309Z,94.60
2022-12-19T03:25:23.772Z,94.80
2022-12-19T03:29:15.066Z,94.50
2022-12-19T03:32:57.983Z,94.60
2022-12-19T03:36:46.366Z,94.60
2022-12-19T03:40:34.340Z,94.70
2022-12-19T03:44:19.479Z,94.60
2022-12-19T03:48:11.866Z,94.60
2022-12-19T03:51:59.209Z,94.60
2022-12-19T03:55:52.870Z,94.60
2022-12-19T03:59:53.657Z,94.60
2022-12-19T04:03:36.729Z,94.60
2022-12-19T04:07:19.835Z,94.60
2022-12-19T04:11:10.915Z,94.60
2022-12-19T04:14:53.132Z,94.60
2022-12-19T04:18:36.544Z,94.60
2022-12-19T04:23:00.539Z,94.60
2022-12-19T04:26:46.028Z,94.70
2022-12-19T04:30:28.333Z,94.60
2022-12-19T04:34:11.493Z,94.60
2022-12-19T04:38:03.297Z,94.70
2022-12-19T04:41:47.796Z,94.70
2022-12-19T04:45:36.518Z,94.70
2022-12-19T04:49:19.261Z,94.70
2022-12-19T04:53:03.030Z,94.70
2022-12-19T04:56:46.029Z,94.70
2022-12-19T05:00:30.619Z,94.70
2022-12-19T05:04:16.390Z,94.80
2022-12-19T05:08:00.837Z,94.80
2022-12-19T05:11:43.946Z,94.80
2022-12-19T05:15:26.112Z,94.70
2022-12-19T05:19:08.132Z,94.80
2022-12-19T05:22:50.433Z,94.80
2022-12-19T05:26:33.311Z,94.80
2022-12-19T05:30:20.250Z,94.80
2022-12-19T05:34:02.924Z,94.80
2022-12-19T05:37:45.136Z,94.80
2022-12-19T05:41:27.585Z,94.80
2022-12-19T05:45:09.851Z,94.70
2022-12-19T05:48:54.379Z,94.70
2022-12-19T05:52:43.670Z,94.80
2022-12-19T05:56:25.944Z,94.80
2022-12-19T06:00:09.159Z,94.70
2022-12-19T06:03:52.985Z,94.70
2022-12-19T06:07:35.874Z,94.80
2022-12-19T06:15:32.230Z,94.70
2022-12-19T06:19:17.698Z,94.70
2022-12-19T06:23:00.195Z,94.70
2022-12-19T06:26:42.348Z,94.70
2022-12-19T06:30:25.410Z,94.70
2022-12-19T06:34:09.554Z,94.70
2022-12-19T06:37:55.310Z,94.70
2022-12-19T06:41:59.601Z,94.70
2022-12-19T06:45:43.985Z,94.70
2022-12-19T06:49:31.647Z,94.70
2022-12-19T06:53:14.931Z,94.70
2022-12-19T06:56:57.628Z,94.60
2022-12-19T07:00:44.013Z,94.70
2022-12-19T07:04:39.487Z,94.70
2022-12-19T07:08:22.782Z,94.70
2022-12-19T07:12:08.368Z,94.70
2022-12-19T07:15:52.368Z,94.70
2022-12-19T07:19:36.985Z,94.60
2022-12-19T07:23:23.786Z,94.70
2022-12-19T07:27:11.092Z,94.70
2022-12-19T07:30:53.289Z,94.70
2022-12-19T07:34:37.884Z,94.70
2022-12-19T07:38:20.170Z,94.60
2022-12-19T07:42:03.102Z,94.60
2022-12-19T07:45:46.098Z,94.60
2022-12-19T07:49:29.093Z,94.60
2022-12-19T07:53:11.159Z,94.60
2022-12-19T07:56:56.342Z,94.60
2022-12-19T08:00:41.571Z,94.60
2022-12-19T08:04:25.705Z,94.60
2022-12-19T08:08:09.071Z,94.70
2022-12-19T08:11:53.517Z,94.70
2022-12-19T08:15:36.789Z,94.70
2022-12-19T08:19:25.876Z,94.70
2022-12-19T08:23:09.786Z,94.70
2022-12-19T08:26:54.946Z,94.60
2022-12-19T08:30:41.807Z,94.60
2022-12-19T08:34:50.256Z,94.60
2022-12-19T08:38:33.643Z,94.60
2022-12-19T08:42:17.180Z,94.50
2022-12-19T08:46:01.447Z,94.50
2022-12-19T08:49:47.601Z,94.50
2022-12-19T08:53:39.089Z,94.50
2022-12-19T08:57:21.516Z,94.40
2022-12-19T09:01:11.460Z,94.50
2022-12-19T09:06:00.882Z,94.50
2022-12-19T09:09:00.232Z,94.50
2022-12-19T09:12:51.476Z,94.50
2022-12-19T09:16:39.452Z,94.50
2022-12-19T09:20:23.756Z,94.40
2022-12-19T09:24:09.063Z,94.40
2022-12-19T09:28:26.576Z,94.40
2022-12-19T09:31:57.409Z,94.50
2022-12-19T09:35:39.494Z,94.50
2022-12-19T09:39:22.001Z,94.50
2022-12-19T09:43:24.107Z,94.50
2022-12-19T09:47:14.594Z,94.60
2022-12-19T09:51:17.978Z,94.60
2022-12-19T09:55:16.757Z,94.50
2022-12-19T09:59:07.270Z,94.60
2022-12-19T10:02:55.259Z,94.60
2022-12-19T10:07:12.405Z,94.60
2022-12-19T10:12:38.035Z,94.60
2022-12-19T10:15:26.292Z,94.60
2022-12-19T10:19:17.945Z,94.70
2022-12-19T10:23:05.819Z,94.60
2022-12-19T10:26:54.070Z,94.60
2022-12-19T10:30:48.267Z,94.60
2022-12-19T10:34:48.088Z,94.60
2022-12-19T10:38:36.180Z,94.60
2022-12-19T10:42:51.982Z,94.60
2022-12-19T10:46:51.794Z,94.60
2022-12-19T10:50:38.853Z,94.60
2022-12-19T10:54:33.434Z,94.50
2022-12-19T10:58:23.948Z,94.50
2022-12-19T11:02:26.938Z,94.60
2022-12-19T11:06:32.283Z,94.60
2022-12-19T11:13:17.247Z,94.70
2022-12-19T11:20:29.934Z,94.70
2022-12-19T11:29:15.977Z,94.60
2022-12-19T11:30:47.441Z,94.60
2022-12-19T11:30:47.821Z,94.50
2022-12-19T11:32:41.250Z,94.50
2022-12-19T11:36:43.616Z,94.60
2022-12-19T11:40:49.292Z,94.60
2022-12-19T11:44:46.394Z,94.60
2022-12-19T11:48:39.462Z,94.50
2022-12-19T11:56:46.418Z,94.50
2022-12-19T12:00:36.770Z,94.50
2022-12-19T12:04:34.830Z,94.50
2022-12-19T12:10:19.535Z,94.50
2022-12-19T12:19:25.561Z,94.50
2022-12-19T12:31:05.655Z,94.50
2022-12-19T12:31:38.257Z,94.40
2022-12-19T12:31:57.405Z,94.40
2022-12-19T12:35:56.482Z,94.50
2022-12-19T12:39:29.720Z,94.60
2022-12-19T12:43:55.408Z,94.60
2022-12-19T12:47:39.103Z,94.60
2022-12-19T12:51:25.111Z,94.50
2022-12-19T12:55:43.007Z,94.50
2022-12-19T12:59:34.276Z,94.70
2022-12-19T13:03:20.192Z,94.50
2022-12-19T13:12:20.442Z,94.70
2022-12-19T13:16:25.924Z,94.60
2022-12-19T13:20:13.221Z,94.60
2022-12-19T13:24:17.249Z,94.60
2022-12-19T13:28:08.009Z,94.70
2022-12-19T13:32:15.703Z,94.60
2022-12-19T13:43:51.137Z,94.60
2022-12-19T13:47:38.597Z,94.60
2022-12-19T13:51:22.100Z,94.60
2022-12-19T13:55:08.073Z,94.50
2022-12-19T13:58:55.324Z,94.50
2022-12-19T14:02:57.959Z,94.60
2022-12-19T14:06:49.549Z,94.60
2022-12-19T14:11:38.334Z,94.60
2022-12-19T14:15:19.023Z,94.60
2022-12-19T14:19:01.177Z,94.60
2022-12-19T14:22:46.236Z,94.50
2022-12-19T14:28:23.598Z,94.60
2022-12-19T14:30:36.879Z,94.60
2022-12-19T14:35:29.529Z,94.50
2022-12-19T14:39:20.206Z,94.60
2022-12-19T14:43:57.374Z,94.60
2022-12-19T14:54:04.127Z,94.60
2022-12-19T14:54:06.297Z,94.70
2022-12-19T14:56:13.642Z,94.60
2022-12-19T14:59:42.447Z,94.70
2022-12-19T15:03:32.526Z,94.70
2022-12-19T15:07:25.699Z,94.80
2022-12-19T15:11:52.560Z,94.80
2022-12-19T15:15:52.530Z,94.70
2022-12-19T15:19:39.859Z,94.80
2022-12-19T15:27:22.191Z,94.60
2022-12-19T15:31:13.348Z,94.60
2022-12-19T15:34:57.115Z,94.70
2022-12-19T15:38:39.267Z,94.60
2022-12-19T15:42:26.355Z,94.60
2022-12-19T15:46:12.481Z,94.70
2022-12-19T15:49:54.757Z,94.70
2022-12-19T15:53:41.144Z,94.60
2022-12-19T15:57:32.248Z,94.60
2022-12-19T16:01:16.011Z,94.70
2022-12-19T16:05:03.745Z,94.70
2022-12-19T16:08:48.027Z,94.70
2022-12-19T16:12:48.285Z,94.70
2022-12-19T16:16:30.532Z,94.80
2022-12-19T16:20:30.191Z,94.80
2022-12-19T16:24:14.529Z,94.80
2022-12-19T16:27:59.674Z,94.80
2022-12-19T16:31:41.927Z,94.80
2022-12-19T16:36:02.951Z,94.80
2022-12-19T16:39:38.337Z,94.80
2022-12-19T16:43:35.998Z,94.80
2022-12-19T16:47:21.653Z,94.90
2022-12-19T16:51:16.696Z,94.80
2022-12-19T16:54:59.473Z,94.80
2022-12-19T16:58:43.385Z,94.80
2022-12-19T17:02:50.487Z,94.80
2022-12-19T17:06:37.789Z,94.90
2022-12-19T17:10:31.799Z,94.80
2022-12-19T17:14:25.740Z,94.80
2022-12-19T17:18:25.639Z,94.90
2022-12-19T17:22:19.234Z,94.90
2022-12-19T17:26:04.032Z,94.90
2022-12-19T17:29:52.190Z,94.80
2022-12-19T17:37:38.132Z,94.80
2022-12-19T17:41:21.383Z,94.80
2022-12-19T17:45:11.296Z,94.80
2022-12-19T17:48:54.962Z,94.80
2022-12-19T17:52:37.089Z,94.80
2022-12-19T17:56:20.931Z,94.80
2022-12-19T18:00:05.088Z,94.80
2022-12-19T18:03:50.966Z,94.90
2022-12-19T18:07:33.304Z,94.80
2022-12-19T18:11:32.240Z,94.90
2022-12-19T18:15:28.405Z,95.00
2022-12-19T18:23:31.103Z,95.00
2022-12-19T18:27:14.623Z,94.90
2022-12-19T18:31:26.206Z,94.90
2022-12-19T18:35:16.525Z,94.90
2022-12-19T18:38:59.249Z,95.00
2022-12-19T18:42:44.172Z,94.90
2022-12-19T18:46:32.808Z,95.00
2022-12-19T18:50:34.262Z,95.00
2022-12-19T18:58:56.927Z,95.00
2022-12-19T19:11:26.893Z,95.00
2022-12-19T19:15:11.946Z,95.00
2022-12-19T19:28:00.004Z,95.00
2022-12-19T19:31:49.768Z,95.10
2022-12-19T19:36:11.970Z,95.00
2022-12-19T19:40:45.643Z,95.00
2022-12-19T19:44:41.690Z,95.00
2022-12-19T19:48:25.620Z,94.90
2022-12-19T19:52:07.709Z,95.00
2022-12-19T19:55:57.974Z,95.00
2022-12-19T19:59:50.632Z,95.00
2022-12-19T20:03:33.573Z,95.00
2022-12-19T20:07:18.057Z,95.00
2022-12-19T20:11:11.191Z,95.00
2022-12-19T20:14:54.122Z,95.00
2022-12-19T20:18:42.868Z,95.00
2022-12-19T20:26:36.296Z,95.00
2022-12-19T20:30:21.732Z,95.00
2022-12-19T20:34:06.800Z,95.00
2022-12-19T20:37:58.966Z,95.00
2022-12-19T20:49:59.474Z,95.00
2022-12-19T20:58:09.468Z,95.00
2022-12-19T21:01:54.008Z,95.10
2022-12-19T21:15:12.845Z,95.00
2022-12-19T21:19:04.507Z,94.90
2022-12-19T21:23:13.521Z,95.00
2022-12-19T21:27:00.713Z,95.00
2022-12-19T21:30:44.363Z,94.90
2022-12-19T21:38:29.383Z,95.00
2022-12-19T21:47:38.029Z,95.00
2022-12-19T21:55:42.609Z,95.00
2022-12-19T21:59:56.778Z,95.00
2022-12-19T22:08:08.391Z,94.90
2022-12-19T22:12:05.131Z,94.90
2022-12-19T22:15:53.096Z,94.90
2022-12-19T22:24:12.342Z,95.10
2022-12-19T22:28:02.488Z,94.90
2022-12-19T22:31:46.224Z,94.90
2022-12-19T22:35:32.932Z,94.90
2022-12-19T22:39:41.498Z,94.90
2022-12-19T22:47:33.331Z,94.90
2022-12-19T22:51:22.953Z,94.80
2022-12-19T22:55:10.077Z,94.90
2022-12-19T22:59:06.378Z,94.90
2022-12-19T23:10:52.966Z,95.00
2022-12-19T23:14:48.067Z,94.90
2022-12-19T23:19:03.296Z,95.00
2022-12-19T23:31:27.023Z,95.00
2022-12-19T23:35:19.160Z,95.00
2022-12-19T23:43:07.680Z,95.00
2022-12-19T23:47:20.163Z,95.00
2022-12-19T23:55:14.511Z,95.10
2022-12-19T23:59:01.588Z,95.10
